createdAt,value
2022-11-25T00:01:36.554Z,2.35
2022-11-25T00:04:11.807Z,2.40
2022-11-25T00:06:44.790Z,2.55
2022-11-25T00:09:16.659Z,2.35
2022-11-25T00:11:49.172Z,2.10
2022-11-25T00:14:21.135Z,2.47
2022-11-25T00:16:53.937Z,3.10
2022-11-25T00:19:25.899Z,2.50
2022-11-25T00:21:58.445Z,2.42
2022-11-25T00:24:30.287Z,2.30
2022-11-25T00:27:05.237Z,2.58
2022-11-25T00:29:39.639Z,2.50
2022-11-25T00:32:12.326Z,2.35
2022-11-25T00:34:44.521Z,2.70
2022-11-25T00:37:17.130Z,2.77
2022-11-25T00:39:49.423Z,3.17
2022-11-25T00:42:40.547Z,2.80
2022-11-25T00:45:12.744Z,2.92
2022-11-25T00:47:45.013Z,2.58
2022-11-25T00:50:17.621Z,3.00
2022-11-25T00:52:49.482Z,3.28
2022-11-25T00:55:22.546Z,2.70
2022-11-25T00:58:01.670Z,2.67
2022-11-25T01:00:34.663Z,3.03
2022-11-25T01:03:06.545Z,2.80
2022-11-25T01:05:39.079Z,2.72
2022-11-25T01:08:10.964Z,2.15
2022-11-25T01:10:43.958Z,2.53
2022-11-25T01:13:15.825Z,2.75
2022-11-25T01:15:48.349Z,2.27
2022-11-25T01:18:20.498Z,2.30
2022-11-25T01:20:53.103Z,2.05
2022-11-25T01:23:25.025Z,2.10
2022-11-25T01:26:03.742Z,3.00
2022-11-25T01:28:36.049Z,2.00
2022-11-25T01:31:17.811Z,1.90
2022-11-25T01:34:04.680Z,2.03
2022-11-25T01:36:37.817Z,2.03
2022-11-25T01:39:17.988Z,1.90
2022-11-25T01:41:50.830Z,1.90
2022-11-25T01:44:27.060Z,2.08
2022-11-25T01:47:13.583Z,1.80
2022-11-25T01:50:00.769Z,1.63
2022-11-25T01:52:46.753Z,2.20
2022-11-25T01:55:30.037Z,2.33
2022-11-25T01:58:30.602Z,1.98
2022-11-25T02:01:02.934Z,2.10
2022-11-25T02:03:43.460Z,1.90
2022-11-25T02:06:29.531Z,2.03
2022-11-25T02:09:08.099Z,2.40
2022-11-25T02:11:44.441Z,2.15
2022-11-25T02:14:18.804Z,2.40
2022-11-25T02:16:51.513Z,2.00
2022-11-25T02:19:37.821Z,1.95
2022-11-25T02:22:19.209Z,2.10
2022-11-25T02:24:58.457Z,1.88
2022-11-25T02:27:31.058Z,2.33
2022-11-25T02:30:03.614Z,1.90
2022-11-25T02:32:36.243Z,1.83
2022-11-25T02:35:32.074Z,1.90
2022-11-25T02:38:25.054Z,1.90
2022-11-25T02:41:06.336Z,1.92
2022-11-25T02:43:40.397Z,2.00
2022-11-25T02:46:21.947Z,1.95
2022-11-25T02:49:08.933Z,2.20
2022-11-25T02:51:45.650Z,1.80
2022-11-25T02:54:18.356Z,1.80
2022-11-25T02:56:51.163Z,1.90
2022-11-25T02:59:23.263Z,2.03
2022-11-25T03:01:56.658Z,2.20
2022-11-25T03:04:31.956Z,2.10
2022-11-25T03:07:03.811Z,2.08
2022-11-25T03:09:37.004Z,1.60
2022-11-25T03:12:21.220Z,1.75
2022-11-25T03:14:58.525Z,1.87
2022-11-25T03:17:30.472Z,1.90
2022-11-25T03:20:04.146Z,1.73
2022-11-25T03:22:37.500Z,1.75
2022-11-25T03:25:12.620Z,1.90
2022-11-25T03:27:45.056Z,1.60
2022-11-25T03:30:24.747Z,1.98
2022-11-25T03:33:00.609Z,1.80
2022-11-25T03:35:33.699Z,1.63
2022-11-25T03:38:06.094Z,1.65
2022-11-25T03:40:41.383Z,2.00
2022-11-25T03:43:14.844Z,1.85
2022-11-25T03:45:50.267Z,1.65
2022-11-25T03:48:23.259Z,2.03
2022-11-25T03:50:55.652Z,1.70
2022-11-25T03:53:30.363Z,1.70
2022-11-25T03:56:05.262Z,2.08
2022-11-25T03:58:38.100Z,2.05
2022-11-25T04:01:11.900Z,1.90
2022-11-25T04:03:44.768Z,2.00
2022-11-25T04:06:19.982Z,2.37
2022-11-25T04:08:54.185Z,2.15
2022-11-25T04:11:47.143Z,1.92
2022-11-25T04:14:20.158Z,1.70
2022-11-25T04:16:53.023Z,1.88
2022-11-25T04:19:25.875Z,2.10
2022-11-25T04:22:01.185Z,2.10
2022-11-25T04:24:37.550Z,1.85
2022-11-25T04:27:10.738Z,2.20
2022-11-25T04:29:43.536Z,2.17
2022-11-25T04:32:19.152Z,1.63
2022-11-25T04:34:52.294Z,1.90
2022-11-25T04:37:24.914Z,2.30
2022-11-25T04:39:59.289Z,1.80
2022-11-25T04:42:31.669Z,1.88
2022-11-25T04:45:24.047Z,2.03
2022-11-25T04:47:59.080Z,2.05
2022-11-25T04:50:31.936Z,2.10
2022-11-25T04:53:10.999Z,1.92
2022-11-25T04:55:44.835Z,2.00
2022-11-25T04:58:40.808Z,1.90
2022-11-25T05:01:14.128Z,2.13
2022-11-25T05:03:57.159Z,2.47
2022-11-25T05:06:32.158Z,1.80
2022-11-25T05:09:05.109Z,1.70
2022-11-25T05:11:40.601Z,2.03
2022-11-25T05:14:13.424Z,1.80
2022-11-25T05:16:45.416Z,1.73
2022-11-25T05:19:18.882Z,2.30
2022-11-25T05:21:50.858Z,1.90
2022-11-25T05:24:25.727Z,2.40
2022-11-25T05:26:58.794Z,1.60
2022-11-25T05:29:30.762Z,1.80
2022-11-25T05:32:04.534Z,1.88
2022-11-25T05:34:38.115Z,1.80
2022-11-25T05:37:14.361Z,2.00
2022-11-25T05:39:54.702Z,1.65
2022-11-25T05:42:53.824Z,2.03
2022-11-25T05:45:26.395Z,1.75
2022-11-25T05:47:59.220Z,1.80
2022-11-25T05:50:33.678Z,2.40
2022-11-25T05:53:10.352Z,2.00
2022-11-25T05:55:42.685Z,2.30
2022-11-25T05:58:25.110Z,1.90
2022-11-25T06:01:00.733Z,2.40
2022-11-25T06:03:33.965Z,2.00
2022-11-25T06:06:07.626Z,2.08
2022-11-25T06:08:40.778Z,2.10
2022-11-25T06:11:17.377Z,2.40
2022-11-25T06:13:50.454Z,2.17
2022-11-25T06:16:23.737Z,2.53
2022-11-25T06:19:07.388Z,2.40
2022-11-25T06:21:40.296Z,2.40
2022-11-25T06:24:13.010Z,2.33
2022-11-25T06:26:46.753Z,2.58
2022-11-25T06:29:19.451Z,2.23
2022-11-25T06:31:54.753Z,2.38
2022-11-25T06:34:46.308Z,2.15
2022-11-25T06:37:30.100Z,3.13
2022-11-25T06:40:03.606Z,2.60
2022-11-25T06:42:38.379Z,2.77
2022-11-25T06:45:10.930Z,2.50
2022-11-25T06:47:43.693Z,2.35
2022-11-25T06:50:16.537Z,2.00
2022-11-25T06:52:49.340Z,2.83
2022-11-25T06:55:21.239Z,2.60
2022-11-25T06:58:08.437Z,2.72
2022-11-25T07:00:46.670Z,2.75
2022-11-25T07:03:18.722Z,3.55
2022-11-25T07:05:51.475Z,3.08
2022-11-25T07:08:26.424Z,4.43
2022-11-25T07:11:11.037Z,2.67
2022-11-25T07:13:43.638Z,2.60
2022-11-25T07:16:16.033Z,2.13
2022-11-25T07:18:50.504Z,2.78
2022-11-25T07:21:24.726Z,3.03
2022-11-25T07:24:04.001Z,3.28
2022-11-25T07:26:39.570Z,3.67
2022-11-25T07:29:44.400Z,3.13
2022-11-25T07:32:10.893Z,2.60
2022-11-25T07:34:43.011Z,2.50
2022-11-25T07:37:15.332Z,2.40
2022-11-25T07:39:47.843Z,2.40
2022-11-25T07:42:20.631Z,2.30
2022-11-25T07:44:52.923Z,2.25
2022-11-25T07:50:38.860Z,2.50
2022-11-25T07:53:13.919Z,2.90
2022-11-25T07:55:45.788Z,2.50
2022-11-25T07:58:18.503Z,2.55
2022-11-25T08:00:50.759Z,2.05
2022-11-25T08:03:23.622Z,2.38
2022-11-25T08:05:59.956Z,3.38
2022-11-25T08:08:32.694Z,2.60
2022-11-25T08:11:10.526Z,2.35
2022-11-25T08:13:43.885Z,2.40
2022-11-25T08:16:18.662Z,3.08
2022-11-25T08:18:50.826Z,2.72
2022-11-25T08:21:23.378Z,2.70
2022-11-25T08:23:57.201Z,3.42
2022-11-25T08:26:36.204Z,2.33
2022-11-25T08:29:14.123Z,2.63
2022-11-25T08:31:46.612Z,2.45
2022-11-25T08:34:23.951Z,3.05
2022-11-25T08:37:00.542Z,2.70
2022-11-25T08:42:25.396Z,2.67
2022-11-25T08:44:58.120Z,2.30
2022-11-25T08:47:31.405Z,3.05
2022-11-25T08:50:11.006Z,2.40
2022-11-25T08:52:44.745Z,2.70
2022-11-25T08:55:16.668Z,2.30
2022-11-25T08:57:49.838Z,2.78
2022-11-25T09:00:22.591Z,2.50
2022-11-25T09:02:55.419Z,2.42
2022-11-25T09:05:29.042Z,2.50
2022-11-25T09:08:04.819Z,1.98
2022-11-25T09:10:38.945Z,2.42
2022-11-25T09:13:12.102Z,2.17
2022-11-25T09:15:44.884Z,2.40
2022-11-25T09:18:20.400Z,2.08
2022-11-25T09:20:58.089Z,2.38
2022-11-25T09:23:30.184Z,2.90
2022-11-25T09:26:02.926Z,2.30
2022-11-25T09:28:36.545Z,2.63
2022-11-25T09:31:10.451Z,2.30
2022-11-25T09:33:42.520Z,1.92
2022-11-25T09:36:17.532Z,2.20
2022-11-25T09:38:49.977Z,3.63
2022-11-25T09:42:16.203Z,2.20
2022-11-25T09:45:22.009Z,1.92
2022-11-25T09:48:12.852Z,2.13
2022-11-25T09:51:25.345Z,1.98
2022-11-25T09:54:17.156Z,2.13
2022-11-25T09:57:27.257Z,1.85
2022-11-25T10:00:19.145Z,2.10
2022-11-25T10:03:39.909Z,2.60
2022-11-25T10:06:37.329Z,2.22
2022-11-25T10:09:16.817Z,2.38
2022-11-25T10:12:01.699Z,2.13
2022-11-25T10:14:42.705Z,1.73
2022-11-25T10:17:35.393Z,2.05
2022-11-25T10:20:08.380Z,1.92
2022-11-25T10:22:56.031Z,2.00
2022-11-25T10:25:32.603Z,1.70
2022-11-25T10:28:24.604Z,1.88
2022-11-25T10:31:05.889Z,2.10
2022-11-25T10:33:51.807Z,1.83
2022-11-25T10:36:34.574Z,2.00
2022-11-25T10:39:19.025Z,1.83
2022-11-25T10:42:01.847Z,1.70
2022-11-25T10:44:40.477Z,1.60
2022-11-25T10:47:35.260Z,1.55
2022-11-25T10:50:39.209Z,1.60
2022-11-25T10:53:23.089Z,1.92
2022-11-25T10:56:06.051Z,2.00
2022-11-25T10:58:40.066Z,1.85
2022-11-25T11:01:25.961Z,1.70
2022-11-25T11:04:12.260Z,2.00
2022-11-25T11:06:48.507Z,2.40
2022-11-25T11:09:41.239Z,1.92
2022-11-25T11:12:25.827Z,2.05
2022-11-25T11:15:26.490Z,2.45
2022-11-25T11:18:15.408Z,2.53
2022-11-25T11:20:52.025Z,2.63
2022-11-25T11:23:25.349Z,2.47
2022-11-25T11:26:00.843Z,2.00
2022-11-25T11:28:38.326Z,4.65
2022-11-25T11:31:24.409Z,2.78
2022-11-25T11:34:45.836Z,2.28
2022-11-25T11:37:44.169Z,2.53
2022-11-25T11:40:47.549Z,2.60
2022-11-25T11:43:33.236Z,2.78
2022-11-25T11:46:29.790Z,2.72
2022-11-25T11:49:30.399Z,2.80
2022-11-25T11:52:05.669Z,2.40
2022-11-25T11:54:54.138Z,2.72
2022-11-25T11:57:54.064Z,2.45
2022-11-25T12:00:30.668Z,2.40
2022-11-25T12:03:19.076Z,2.42
2022-11-25T12:05:55.211Z,2.40
2022-11-25T12:08:38.314Z,2.22
2022-11-25T12:11:21.643Z,2.20
2022-11-25T12:14:07.497Z,2.80
2022-11-25T12:17:02.843Z,2.95
2022-11-25T12:19:56.542Z,2.30
2022-11-25T12:22:38.179Z,2.50
2022-11-25T12:25:19.972Z,2.72
2022-11-25T12:28:23.438Z,2.40
2022-11-25T12:31:20.525Z,2.63
2022-11-25T12:34:12.123Z,2.40
2022-11-25T12:36:46.727Z,2.47
2022-11-25T12:39:30.618Z,2.90
2022-11-25T12:42:15.687Z,2.90
2022-11-25T12:45:07.569Z,3.10
2022-11-25T12:47:39.898Z,3.25
2022-11-25T12:50:48.186Z,2.63
2022-11-25T12:54:27.412Z,2.80
2022-11-25T12:57:49.653Z,3.42
2022-11-25T13:00:43.069Z,2.40
2022-11-25T13:03:38.261Z,2.50
2022-11-25T13:06:31.925Z,3.50
2022-11-25T13:09:54.656Z,2.90
2022-11-25T13:12:31.367Z,2.80
2022-11-25T13:15:27.428Z,3.33
2022-11-25T13:18:05.882Z,3.78
2022-11-25T13:20:50.547Z,2.92
2022-11-25T13:23:29.005Z,3.45
2022-11-25T13:26:38.738Z,2.90
2022-11-25T13:29:13.913Z,3.72
2022-11-25T13:32:03.036Z,3.83
2022-11-25T13:34:37.288Z,3.47
2022-11-25T13:37:36.762Z,3.40
2022-11-25T13:40:28.842Z,3.22
2022-11-25T13:43:01.000Z,3.03
2022-11-25T13:45:41.758Z,3.05
2022-11-25T13:48:24.150Z,3.80
2022-11-25T13:51:21.913Z,3.67
2022-11-25T13:54:04.903Z,3.25
2022-11-25T13:56:38.225Z,3.85
2022-11-25T13:59:10.133Z,3.75
2022-11-25T14:01:45.703Z,3.42
2022-11-25T14:04:40.164Z,3.38
2022-11-25T14:07:32.726Z,3.22
2022-11-25T14:10:20.048Z,3.20
2022-11-25T14:13:45.908Z,3.20
2022-11-25T14:16:39.566Z,3.65
2022-11-25T14:20:05.391Z,3.15
2022-11-25T14:23:01.681Z,3.60
2022-11-25T14:25:56.067Z,3.50
2022-11-25T14:28:42.078Z,3.90
2022-11-25T14:31:22.247Z,3.42
2022-11-25T14:34:09.543Z,3.67
2022-11-25T14:37:07.477Z,3.78
2022-11-25T14:39:55.739Z,4.32
2022-11-25T14:42:35.394Z,4.28
2022-11-25T14:45:31.118Z,4.53
2022-11-25T14:48:19.005Z,4.03
2022-11-25T14:51:05.259Z,4.10
2022-11-25T14:53:48.438Z,3.33
2022-11-25T14:56:29.783Z,3.83
2022-11-25T14:59:02.037Z,7.93
2022-11-25T15:01:37.525Z,3.45
2022-11-25T15:04:22.349Z,3.30
2022-11-25T15:07:00.709Z,3.50
2022-11-25T15:09:45.530Z,3.75
2022-11-25T15:12:22.046Z,3.30
2022-11-25T15:14:56.063Z,2.70
2022-11-25T15:17:34.111Z,3.30
2022-11-25T15:20:17.550Z,3.58
2022-11-25T15:22:52.381Z,3.08
2022-11-25T15:25:24.634Z,2.85
2022-11-25T15:27:56.558Z,3.00
2022-11-25T15:30:30.077Z,2.67
2022-11-25T15:33:03.504Z,2.97
2022-11-25T15:35:36.427Z,3.75
2022-11-25T15:38:36.493Z,3.85
2022-11-25T15:41:35.914Z,3.10
2022-11-25T15:44:22.803Z,3.10
2022-11-25T15:46:59.702Z,3.30
2022-11-25T15:49:35.767Z,3.47
2022-11-25T15:52:09.278Z,4.05
2022-11-25T15:54:53.173Z,3.83
2022-11-25T15:57:35.492Z,4.70
2022-11-25T16:00:17.270Z,5.13
2022-11-25T16:02:55.743Z,5.93
2022-11-25T16:05:37.484Z,5.32
2022-11-25T16:08:30.421Z,6.95
2022-11-25T16:11:16.104Z,4.68
2022-11-25T16:13:50.998Z,4.20
2022-11-25T16:16:28.979Z,4.28
2022-11-25T16:19:12.021Z,4.45
2022-11-25T16:21:54.258Z,3.38
2022-11-25T16:25:01.732Z,4.45
2022-11-25T16:27:37.827Z,6.22
2022-11-25T16:30:20.878Z,6.03
2022-11-25T16:32:52.722Z,4.95
2022-11-25T16:35:25.324Z,4.95
2022-11-25T16:37:58.319Z,4.60
2022-11-25T16:40:30.959Z,4.50
2022-11-25T16:43:03.000Z,4.72
2022-11-25T16:45:35.326Z,6.00
2022-11-25T16:48:20.726Z,6.63
2022-11-25T16:50:52.695Z,5.70
2022-11-25T16:53:25.324Z,3.13
2022-11-25T16:55:57.634Z,3.60
2022-11-25T16:58:30.174Z,3.22
2022-11-25T17:01:02.389Z,3.50
2022-11-25T17:03:34.909Z,4.40
2022-11-25T17:06:22.230Z,4.53
2022-11-25T17:08:55.167Z,4.00
2022-11-25T17:14:00.788Z,3.83
2022-11-25T17:14:38.151Z,4.88
2022-11-25T17:17:24.184Z,5.30
2022-11-25T17:19:57.120Z,4.82
2022-11-25T17:22:33.351Z,4.60
2022-11-25T17:25:08.059Z,5.07
2022-11-25T17:27:41.029Z,5.13
2022-11-25T17:30:27.245Z,4.97
2022-11-25T17:33:07.641Z,4.80
2022-11-25T17:35:39.865Z,4.17
2022-11-25T17:38:19.297Z,4.00
2022-11-25T17:40:53.310Z,5.25
2022-11-25T17:43:28.051Z,5.40
2022-11-25T17:46:03.889Z,5.95
2022-11-25T17:48:36.243Z,6.20
2022-11-25T17:51:14.036Z,5.82
2022-11-25T17:53:47.905Z,6.15
2022-11-25T17:56:25.384Z,6.10
2022-11-25T17:59:05.615Z,5.30
2022-11-25T18:01:37.708Z,6.73
2022-11-25T18:04:17.792Z,6.40
2022-11-25T18:06:50.691Z,5.93
2022-11-25T18:09:23.995Z,6.75
2022-11-25T18:11:59.712Z,5.00
2022-11-25T18:14:35.913Z,4.50
2022-11-25T18:17:08.503Z,5.43
2022-11-25T18:19:40.770Z,4.70
2022-11-25T18:22:19.527Z,4.82
2022-11-25T18:24:52.810Z,4.50
2022-11-25T18:27:27.652Z,5.22
2022-11-25T18:30:02.797Z,5.00
2022-11-25T18:32:34.742Z,5.28
2022-11-25T18:35:36.147Z,6.43
2022-11-25T18:38:09.168Z,7.68
2022-11-25T18:40:46.390Z,6.40
2022-11-25T18:43:24.687Z,6.55
2022-11-25T18:45:59.116Z,6.25
2022-11-25T18:48:31.056Z,4.97
2022-11-25T18:51:03.503Z,5.40
2022-11-25T18:53:36.338Z,6.05
2022-11-25T18:56:17.420Z,7.05
2022-11-25T18:58:52.377Z,7.05
2022-11-25T19:01:24.408Z,7.72
2022-11-25T19:03:57.679Z,6.93
2022-11-25T19:06:29.852Z,6.40
2022-11-25T19:09:03.360Z,6.50
2022-11-25T19:11:39.887Z,7.15
2022-11-25T19:14:22.644Z,9.30
2022-11-25T19:16:55.800Z,8.52
2022-11-25T19:19:27.945Z,7.80
2022-11-25T19:22:01.533Z,11.50
2022-11-25T19:24:33.576Z,8.52
2022-11-25T19:27:06.357Z,8.27
2022-11-25T19:29:42.419Z,9.43
2022-11-25T19:32:25.549Z,9.47
2022-11-25T19:37:57.714Z,8.40
2022-11-25T19:40:34.736Z,7.93
2022-11-25T19:43:10.622Z,8.35
2022-11-25T19:45:44.785Z,9.67
2022-11-25T19:48:20.387Z,9.50
2022-11-25T19:50:59.314Z,8.73
2022-11-25T19:53:34.092Z,6.72
2022-11-25T19:56:14.723Z,7.65
2022-11-25T19:58:46.876Z,8.07
2022-11-25T20:01:21.753Z,6.75
2022-11-25T20:03:55.355Z,7.32
2022-11-25T20:06:27.786Z,6.30
2022-11-25T20:09:05.655Z,6.25
2022-11-25T20:11:40.711Z,7.00
2022-11-25T20:14:12.654Z,7.07
2022-11-25T20:16:45.505Z,6.75
2022-11-25T20:19:19.274Z,8.73
2022-11-25T20:21:51.702Z,8.20
2022-11-25T20:24:23.599Z,7.20
2022-11-25T20:26:57.560Z,7.32
2022-11-25T20:29:30.742Z,7.75
2022-11-25T20:32:29.372Z,7.65
2022-11-25T20:35:02.206Z,8.02
2022-11-25T20:37:40.891Z,7.40
2022-11-25T20:40:20.686Z,7.35
2022-11-25T20:42:53.657Z,7.50
2022-11-25T20:45:25.634Z,6.95
2022-11-25T20:47:59.494Z,7.43
2022-11-25T20:50:31.701Z,6.87
2022-11-25T20:53:04.599Z,7.93
2022-11-25T20:55:36.892Z,7.85
2022-11-25T20:58:24.101Z,7.57
2022-11-25T21:00:57.974Z,7.07
2022-11-25T21:03:30.753Z,7.80
2022-11-25T21:06:20.369Z,7.57
2022-11-25T21:08:55.136Z,6.82
2022-11-25T21:11:28.503Z,7.10
2022-11-25T21:14:00.813Z,7.10
2022-11-25T21:16:33.559Z,7.17
2022-11-25T21:19:05.470Z,6.93
2022-11-25T21:21:42.400Z,6.38
2022-11-25T21:24:28.875Z,6.47
2022-11-25T21:27:06.104Z,6.25
2022-11-25T21:29:41.342Z,6.33
2022-11-25T21:32:27.590Z,5.72
2022-11-25T21:34:59.938Z,5.40
2022-11-25T21:37:36.820Z,5.50
2022-11-25T21:40:38.266Z,5.65
2022-11-25T21:43:32.291Z,4.93
2022-11-25T21:46:07.817Z,14.23
2022-11-25T21:48:40.486Z,5.38
2022-11-25T21:51:21.926Z,4.68
2022-11-25T21:53:54.438Z,5.13
2022-11-25T21:56:34.913Z,5.07
2022-11-25T21:59:15.125Z,5.03
2022-11-25T22:01:48.621Z,6.97
2022-11-25T22:04:21.444Z,7.30
2022-11-25T22:06:55.477Z,6.40
2022-11-25T22:09:27.396Z,5.43
2022-11-25T22:12:00.841Z,7.50
2022-11-25T22:14:37.249Z,7.13
2022-11-25T22:17:17.637Z,6.90
2022-11-25T22:19:50.182Z,6.93
2022-11-25T22:22:22.075Z,8.20
2022-11-25T22:24:55.202Z,7.68
2022-11-25T22:27:39.345Z,8.77
2022-11-25T22:30:20.291Z,9.20
2022-11-25T22:33:02.755Z,9.07
2022-11-25T22:35:35.103Z,7.37
2022-11-25T22:38:17.889Z,7.75
2022-11-25T22:40:57.084Z,6.80
2022-11-25T22:43:42.061Z,6.53
2022-11-25T22:46:14.585Z,6.05
2022-11-25T22:48:47.113Z,6.33
2022-11-25T22:51:25.808Z,6.22
2022-11-25T22:53:57.680Z,6.90
2022-11-25T22:56:30.476Z,7.97
2022-11-25T22:59:02.354Z,7.78
2022-11-25T23:01:35.207Z,7.87
2022-11-25T23:04:13.643Z,7.63
2022-11-25T23:06:47.241Z,7.53
2022-11-25T23:09:20.324Z,8.18
2022-11-25T23:11:53.869Z,8.10
2022-11-25T23:14:26.557Z,9.07
2022-11-25T23:16:58.602Z,7.72
2022-11-25T23:19:30.979Z,6.88
2022-11-25T23:22:02.853Z,7.93
2022-11-25T23:24:35.394Z,7.53
2022-11-25T23:27:07.813Z,7.43
2022-11-25T23:29:40.270Z,5.38
2022-11-25T23:32:20.532Z,5.82
2022-11-25T23:34:53.256Z,5.85
2022-11-25T23:37:25.252Z,5.90
2022-11-25T23:39:58.032Z,6.20
2022-11-25T23:42:30.643Z,6.47
2022-11-25T23:45:07.632Z,6.75
2022-11-25T23:47:41.830Z,6.30
2022-11-25T23:50:32.866Z,6.47
2022-11-25T23:53:13.355Z,6.30
2022-11-25T23:55:46.163Z,6.00
2022-11-25T23:58:21.181Z,6.03
